Home | U.S. Races | Non U.S. Races | Search | FAQ | Quotes | Link | Advertise | Split Second | NASTAR  
 

page: 1 2    Link to This RaceResults  
Mountaineer Race - Single Crs, Combined
USA - PA - Blue Mountain
2/24/2013 10:00 AM

Results¹print

                         SINGLE COURSE RACE  2/24/2013                    Page 1 
 
 
 
CLASS : 6 
Pl Bib Class Team Name Run 1 Run 2 Result 
________________________________________________________________________________ 
1 19 6 Megha Lucas Souders 43.23 (15) 41.82 (14) 1:25.05 (14) 
2 22 6 Megha Kate Yadush 43.85 (10) 44.04 (13) 1:27.89 (12) 
3 21 6 Megha Quinn Whitaker 45.22 (14) 44.53 (15) 1:29.75 (15) 
4 16 6 Dan Banks Young 44.89 (17) 45.31 (22) 1:30.20 (19) 
5 20 6 Megha Leif Tribus 46.18 (23) 44.67 (19) 1:30.85 (21) 
6 15 6 Dan Finn Robbins 44.98 (18) 46.25 (26) 1:31.23 (22) 
7 23 6 Megha Christopher Young 45.63 (20) 45.73 (25) 1:31.36 (24) 
8 10 6 Dan Matthew Yadash 46.99 (27) 46.79 (27) 1:33.78 (26) 
9 8 6 Amy Dan Henley 48.15 (28) 47.93 (28) 1:36.08 (27) 
10 17 6 Megha Jake Harris 49.58 (30) 52.93 (33) 1:42.51 (31) 
11 18 6 Megha Marco Morabito 51.63 (31) 51.60 (30) 1:43.23 (32) 
12 3 6 Amy Sarah Molen 54.50 (19) 52.14 (20) 1:46.64 (20) 
13 2 6 Amy Michael Kulakovsky 57.24 (33) 52.84 (32) 1:50.08 (33) 
14 5 6 Amy Reagan Pattishaw 58.06 (23) 59.06 (23) 1:57.12 (23) 
15 1 6 Amy Grayson Hauck 58.46 (34) 59.46 (34) 1:57.92 (34) 
16 4 6 Amy Rives Northington 1:05.24 (24) 59.96 (24) 2:05.20 (24) 
17 6 6 Amy Maximilian Proniew 
 
CLASS : 7-8 
Pl Bib Class Team Name Run 1 Run 2 Result 
________________________________________________________________________________ 
1 51 7-8 Jim Benjamin Cook 34.71 (1) 33.79 (2) 1:08.50 (1) 
2 26 7-8 Patty Emily Molen 36.89 (1) 37.12 (2) 1:14.01 (2) 
3 28 7-8 Patty Molly Strohl 38.46 (4) 39.35 (5) 1:17.81 (4) 
4 37 7-8 Kevin Adam Petrignani 40.13 (7) 40.60 (8) 1:20.73 (8) 
5 29 7-8 Patty Sophie Milza 41.60 (8) 40.75 (7) 1:22.35 (7) 
6 30 7-8 Patty Nina Kornchankul 40.68 (7) 41.89 (8) 1:22.57 (8) 
7 35 7-8 Kevin James Dougherty 41.86 (11) 41.08 (9) 1:22.94 (10) 
8 34 7-8 Kevin Calvin Carosella 41.82 (9) 41.17 (10) 1:22.99 (11) 
9 36 7-8 Kevin Tucker Ellis 41.84 (10) 41.24 (12) 1:23.08 (12) 
10 14 7-8 Dan Dylan Shawhan 43.06 (14) 42.24 (15) 1:25.30 (15) 
11 38 7-8 Kelvi Olivia Berman 42.95 (9) 43.06 (10) 1:26.01 (9) 
12 32 7-8 Kevin Beau Ellis 43.99 (16) 44.20 (18) 1:28.19 (16) 
13 25 7-8 Patty Grace Maaza 44.62 (12) 43.59 (12) 1:28.21 (13) 
14 11 7-8 Dan Nick Burniewicz 46.49 (25) 42.57 (16) 1:29.06 (17) 
15 44 7-8 Kelvi Ryan Harris 45.05 (19) 44.79 (21) 1:29.84 (18) 
16 33 7-8 Kevin Jack Berman 45.63 (20) 45.64 (24) 1:31.27 (23) 
17 40 7-8 Kelvi Jack Perrucci 46.59 (26) 45.48 (23) 1:32.07 (25) 
18 24 7-8 Patty Carly Harris 45.89 (16) 48.04 (17) 1:33.93 (17) 
19 27 7-8 Patty Ella Shay 48.69 (18) 48.05 (18) 1:36.74 (18) 
20 31 7-8 Kevin Henry Weikert 48.66 (29) 48.24 (29) 1:36.90 (29) 
21 12 7-8 Dan Harrison Holmes 46.46 (24) 52.12 (31) 1:38.58 (30) 
22 9 7-8 Amy Caroline Meeneeley 57.97 (22) 57.12 (22) 1:55.09 (22) 
23 7 7-8 Amy Riley Kassick 
24 13 7-8 Dan Aleksander Proniew 
25 41 7-8 Kelvi Zachary Roseme 
 
 
 
________________________________________________________________________________ 
 
Ski Club Software from www.SplitSecond.com 2/24/2013 12:05:04 PM 

page: 1 2             ¹ attached report
Widgets    Upload/View Logos
All results are 'unofficial'     Copyright © 2016 Split Second Sports Timing, Inc., All rights reserved